Homestead, Pennsylvania
Current Conditions -  °F | °C
As of 12:53 PM on Thursday 30 Oct 2014 (Local Time) from KAGC Reporting Station
Overcast Overcast  
Wind Chill: 47°   Ceiling: 4500
Heat Index: 49°   Visibility: 10mi
Dew Point: 34°   Wind: 6mph
Humidity: 56%   Direction: 340°NNW
Pressure: 30.08"   Gusts: NA
Location:  40.41°N, 79.91°W
Report Text: KAGC 301653Z 34005KT 10SM OVC045 09/01 A3008 RMK AO2 SLP195 T00940011
Loading
Personal Weather Stations






























Interactive Weather Map
Tropical Storm Tracking
New forecast layout! Learn more

10-Day Weather Forecast

Advertisements
Track Severe Weather on mobile